ADDS METAR Data INFO
IDs: Format: Raw Decoded Include TAF

Data at: 0443 UTC 24 Apr 2018

KT65 240435Z AUTO 14003KT 10SM SCT085 BKN110 21/16 A3004 RMK AO2 T02090162
KT65 240420Z AUTO 15003KT 10SM SCT110 A3004 RMK AO2
KT65 240310Z AUTO 14005KT 10SM SCT085 SCT120 A3006 RMK AO2
KT65 240235Z AUTO 13007KT 10SM OVC085 A3005 RMK AO2
KT65 240220Z AUTO 12006KT 10SM OVC085 23/16 A3004 RMK AO2 T02300160
KT65 240150Z AUTO 12006KT 10SM BKN085 BKN110 23/15 A3003 RMK AO2 T02340153
KT65 240135Z AUTO 12005KT 10SM SCT110 24/15 A3003 RMK AO2 T02360150
KT65 240110Z AUTO 12009KT 10SM SCT110 24/15 A3002 RMK AO2 T02410153
KT65 240055Z AUTO 11006KT 10SM SCT110 25/15 A3001 RMK AO2 T02450152
KT65 240035Z AUTO 11010KT 10SM SCT110 25/15 A3000 RMK AO2 T02510150
KT65 240010Z AUTO 12010KT 10SM CLR 26/15 A3000 RMK AO2 T02570147
KT65 232355Z AUTO 10011G15KT 10SM CLR 26/15 A2999 RMK AO2 T02620145 10289 20260
KT65 232335Z AUTO 10011G15KT 10SM SCT110 27/14 A2999 RMK AO2 T02700142
KT65 232315Z AUTO 10010G16KT 10SM CLR 27/14 A2998 RMK AO2 T02740138
KT65 232255Z AUTO 10008G15KT 10SM CLR 28/14 A2998 RMK AO2 T02760136
KT65 232235Z AUTO 08010G16KT 10SM CLR 28/14 A2998 RMK AO2 T02770138
KT65 232215Z AUTO 10013G16KT 10SM CLR 28/14 A2997 RMK AO2 T02800135
KT65 232155Z AUTO 10014G18KT 10SM SCT095 28/13 A2997 RMK AO2 T02840132
KT65 232135Z AUTO 08011G15KT 10SM BKN095 28/13 A2998 RMK AO2 T02830134
KT65 232115Z AUTO 09008KT 10SM SCT060 OVC095 28/13 A2999 RMK AO2 T02820130
KT65 232055Z AUTO 08009KT 10SM SCT070 OVC095 28/13 A3000 RMK AO2 T02840129
KT65 232035Z AUTO 09004KT 10SM SCT065 BKN095 29/13 A3001 RMK AO2 T02850128
KT65 232015Z AUTO 10009KT 10SM BKN095 28/13 A3002 RMK AO2 T02840131
KT65 231955Z AUTO 10010KT 10SM SCT075 SCT095 28/13 A3003 RMK AO2 T02840131
KT65 231935Z AUTO 05005KT 10SM BKN075 BKN095 29/13 A3004 RMK AO2 T02850127
KT65 231915Z AUTO 09007KT 10SM OVC080 28/12 A3004 RMK AO2 T02770123
KT65 231855Z AUTO 12007KT 10SM BKN080 27/13 A3005 RMK AO2 T02700130
KT65 231835Z AUTO 09007G14KT 5SM HZ BKN070 27/13 A3006 RMK AO2 T02700134
KT65 231815Z AUTO 11007KT 7SM BKN070 BKN085 27/13 A3007 RMK AO2 T02650130
KT65 231755Z AUTO 09008G14KT 10SM BKN070 BKN085 26/14 A3008 RMK AO2 6//// T02600137
KT65 231735Z AUTO 12007KT 7SM SCT070 BKN085 26/14 A3008 RMK AO2 T02620140
KT65 231715Z AUTO 10010G14KT 10SM SCT050 SCT070 BKN085 26/14 A3009 RMK AO2 T02590136
KT65 231350Z AUTO 07007KT 10SM SCT047 OVC080 21/17 A3007 RMK AO2 T02070167
KT65 231330Z AUTO 05006KT 10SM BKN045 OVC080 20/17 A3008 RMK AO2 T02010166
KT65 231315Z AUTO 04004KT 10SM OVC045 20/17 A3008 RMK AO2 T01960165
KT65 231255Z AUTO 04003KT 10SM BKN045 OVC075 19/17 A3006 RMK AO2 T01930165
KT65 231235Z AUTO 05005KT 10SM SCT043 OVC075 19/17 A3004 RMK AO2 T01910165
KT65 231210Z AUTO 05004KT 10SM OVC075 19/17 A3003 RMK AO2 T01890165
KT65 231155Z AUTO 00000KT 10SM OVC075 19/17 A3002 RMK AO2 6//// 7//// T01900165
KT65 231135Z AUTO 00000KT 10SM OVC075 19/17 A3002 RMK AO2 T01880165
KT65 231120Z AUTO 05003KT 10SM BKN075 BKN120 A3001 RMK AO2
KT65 231035Z AUTO 00000KT 10SM OVC075 19/16 A3001 RMK AO2 T01870161
KT65 231020Z AUTO 05003KT 10SM OVC075 A3001 RMK AO2
KT65 230935Z AUTO 03003KT 10SM OVC075 19/16 A3001 RMK AO2 T01850160
KT65 230910Z AUTO 03003KT 10SM OVC075 18/16 A3000 RMK AO2 T01820159
KT65 230855Z AUTO 04003KT 10SM OVC075 18/16 A3001 RMK AO2 6//// T01820159
KT65 230835Z AUTO 00000KT 10SM OVC075 18/16 A3001 RMK AO2 T01770161
KT65 230755Z AUTO 00000KT 10SM SCT075 BKN110 17/16 A3000 RMK AO2 T01710156
KT65 230715Z AUTO 00000KT 10SM SCT110 18/16 A3000 RMK AO2 T01750155
KT65 230650Z AUTO 00000KT 10SM SCT110 18/16 A3000 RMK AO2 T01800156
KT65 230635Z AUTO 00000KT 10SM SCT110 19/16 A3000 RMK AO2 T01860155
KT65 230620Z AUTO 00000KT 10SM SCT110 19/16 A3001 RMK AO2 T01910155
KT65 230555Z AUTO 00000KT 10SM SCT110 19/16 A3001 RMK AO2 T01910156 10254 20191
KT65 230535Z AUTO 14003KT 10SM SCT110 20/16 A3002 RMK AO2 T02000156
KT65 230515Z AUTO 00000KT 10SM BKN110 20/16 A3002 RMK AO2 T01970155
KT65 230455Z AUTO 16003KT 10SM BKN110 20/16 A3003 RMK AO2 T02010155
KT65 230435Z AUTO 12003KT 10SM BKN110 21/15 A3003 RMK AO2 T02060153
KT65 230415Z AUTO 00000KT 10SM BKN110 21/15 A3004 RMK AO2 T02060150
KT65 230355Z AUTO 13003KT 10SM SCT110 21/14 A3003 RMK AO2 T02080142
KT65 230335Z AUTO 10004KT 10SM SCT090 BKN110 21/14 A3002 RMK AO2 T02100142
KT65 230315Z AUTO 00000KT 10SM SCT095 BKN110 21/14 A3002 RMK AO2 T02110140
KT65 230255Z AUTO 11003KT 10SM SCT110 21/14 A3001 RMK AO2 T02130140
KT65 230235Z AUTO 12003KT 10SM SCT110 22/14 A3000 RMK AO2 T02150140
KT65 230215Z AUTO 09004KT 10SM BKN110 22/14 A2999 RMK AO2 T02170136
KT65 230155Z AUTO 09007KT 10SM BKN110 22/13 A2998 RMK AO2 T02200134
KT65 230135Z AUTO 08006KT 10SM BKN110 23/14 A2998 RMK AO2 T02250135
KT65 230115Z AUTO 08007KT 10SM BKN110 23/14 A2996 RMK AO2 T02310138
KT65 230055Z AUTO 11008KT 10SM CLR 24/14 A2996 RMK AO2 T02400141
KT65 230035Z AUTO 09008G14KT 10SM CLR 25/14 A2995 RMK AO2 T02460141
KT65 230015Z AUTO 11009KT 10SM CLR 25/14 A2996 RMK AO2 T02530143
KT65 222355Z AUTO 09011KT 10SM CLR 25/14 A2995 RMK AO2 T02520143 10292 20246
KT65 222335Z AUTO 08009KT 10SM CLR 26/15 A2995 RMK AO2 T02600150
KT65 222315Z AUTO 10010G16KT 10SM CLR 27/16 A2995 RMK AO2 T02660155
KT65 222255Z AUTO 09011G17KT 10SM SCT110 27/16 A2994 RMK AO2 T02740158
KT65 222235Z AUTO 09012G17KT 10SM SCT110 28/16 A2994 RMK AO2 T02790161
KT65 222215Z AUTO 08011G16KT 10SM CLR 29/17 A2994 RMK AO2 LTG DSNT W T02860167
KT65 222155Z AUTO 09008KT 10SM CLR 28/17 A2994 RMK AO2 T02840174
KT65 222135Z AUTO 09010G15KT 10SM CLR 29/18 A2994 RMK AO2 T02850176
KT65 222115Z AUTO 09009KT 10SM CLR 29/18 A2995 RMK AO2 T02920182
KT65 222055Z AUTO 07011KT 10SM CLR 28/19 A2996 RMK AO2 T02840185
KT65 222035Z AUTO 08008KT 10SM CLR 28/19 A2996 RMK AO2 T02790189
KT65 222015Z AUTO 07010G14KT 10SM CLR 28/19 A2998 RMK AO2 T02760191
KT65 221955Z AUTO 05010G14KT 10SM CLR 27/19 A2999 RMK AO2 T02700190
KT65 221935Z AUTO 06007KT 10SM CLR 27/19 A2999 RMK AO2 T02680190
KT65 221915Z AUTO 06008G14KT 10SM SCT018 26/19 A3000 RMK AO2 T02640189
KT65 221855Z AUTO 05009KT 030V090 10SM OVC018 26/19 A3001 RMK AO2 T02630193
KT65 221835Z AUTO 05010KT 10SM BKN018 BKN032 26/19 A3002 RMK AO2 T02580193
KT65 221815Z AUTO 06012KT 10SM BKN018 BKN024 BKN032 26/20 A3002 RMK AO2 T02620196
KT65 221755Z AUTO 06011KT 10SM OVC016 25/20 A3003 RMK AO2 6//// T02470196
KT65 221735Z AUTO 03008KT 10SM OVC018 25/20 A3004 RMK AO2 T02460196
KT65 221715Z AUTO 03009KT 10SM OVC018 25/20 A3004 RMK AO2 T02480200
KT65 221655Z AUTO 36009KT 10SM OVC018 26/20 A3003 RMK AO2 T02550201